createdAt,value
2017-06-04T00:00:50.605Z,964.57
2017-06-04T00:01:59.624Z,964.61
2017-06-04T00:03:08.705Z,964.6
2017-06-04T00:04:17.490Z,964.59
2017-06-04T00:05:26.571Z,964.59
2017-06-04T00:06:35.643Z,964.57
2017-06-04T00:07:44.415Z,964.6
2017-06-04T00:08:53.187Z,964.56
2017-06-04T00:10:01.962Z,964.53
2017-06-04T00:11:10.728Z,964.6
2017-06-04T00:12:20.725Z,964.55
2017-06-04T00:13:29.786Z,964.55
2017-06-04T00:14:38.811Z,964.48
2017-06-04T00:15:47.884Z,964.52
2017-06-04T00:16:56.965Z,964.5
2017-06-04T00:18:06.053Z,964.55
2017-06-04T00:19:15.129Z,964.55
2017-06-04T00:20:24.209Z,964.5
2017-06-04T00:21:33.292Z,964.54
2017-06-04T00:22:42.669Z,964.54
2017-06-04T00:23:51.436Z,964.57
2017-06-04T00:25:00.455Z,964.59
2017-06-04T00:26:09.533Z,964.57
2017-06-04T00:27:18.922Z,964.59
2017-06-04T00:28:28.197Z,964.58
2017-06-04T00:29:37.243Z,964.56
2017-06-04T00:30:46.315Z,964.54
2017-06-04T00:31:55.385Z,964.59
2017-06-04T00:33:04.767Z,964.58
2017-06-04T00:34:13.541Z,964.62
2017-06-04T00:35:22.621Z,964.63
2017-06-04T00:36:31.695Z,964.64
2017-06-04T00:37:40.769Z,964.61
2017-06-04T00:38:49.538Z,964.62
2017-06-04T00:39:58.311Z,964.63
2017-06-04T00:41:07.021Z,964.63
2017-06-04T00:42:16.051Z,964.67
2017-06-04T00:43:25.433Z,964.66
2017-06-04T00:44:34.193Z,964.65
2017-06-04T00:45:42.956Z,964.67
2017-06-04T00:46:51.738Z,964.68
2017-06-04T00:48:00.506Z,964.68
2017-06-04T00:49:09.594Z,964.7
2017-06-04T00:50:18.364Z,964.73
2017-06-04T00:51:27.399Z,964.68
2017-06-04T00:52:36.615Z,964.72
2017-06-04T00:53:45.375Z,964.73
2017-06-04T00:54:54.092Z,964.73
2017-06-04T00:56:02.861Z,964.79
2017-06-04T00:57:11.670Z,964.75
2017-06-04T00:58:20.739Z,964.81
2017-06-04T00:59:30.121Z,964.84
2017-06-04T01:00:39.195Z,964.84
2017-06-04T01:01:48.268Z,964.83
2017-06-04T01:02:57.320Z,964.83
2017-06-04T01:04:06.339Z,964.83
2017-06-04T01:05:15.052Z,964.83
2017-06-04T01:06:24.424Z,964.82
2017-06-04T01:07:33.749Z,964.84
2017-06-04T01:08:43.146Z,964.82
2017-06-04T01:09:51.865Z,964.81
2017-06-04T01:11:00.628Z,964.78
2017-06-04T01:12:09.401Z,964.81
2017-06-04T01:13:18.478Z,964.78
2017-06-04T01:14:27.254Z,964.8
2017-06-04T01:15:36.338Z,964.84
2017-06-04T01:16:45.099Z,964.82
2017-06-04T01:17:53.863Z,964.8
2017-06-04T01:19:02.626Z,964.78
2017-06-04T01:20:11.696Z,964.74
2017-06-04T01:21:21.069Z,964.74
2017-06-04T01:22:29.781Z,964.72
2017-06-04T01:23:39.178Z,964.7
2017-06-04T01:24:48.257Z,964.69
2017-06-04T01:25:57.013Z,964.67
2017-06-04T01:27:06.056Z,964.67
2017-06-04T01:28:15.385Z,964.68
2017-06-04T01:29:24.165Z,964.68
2017-06-04T01:30:33.269Z,964.65
2017-06-04T01:31:42.342Z,964.67
2017-06-04T01:32:51.122Z,964.68
2017-06-04T01:34:00.200Z,964.7
2017-06-04T01:35:09.262Z,964.7
2017-06-04T01:36:18.008Z,964.67
2017-06-04T01:37:27.089Z,964.69
2017-06-04T01:38:36.769Z,964.69
2017-06-04T01:39:45.553Z,964.72
2017-06-04T01:40:54.632Z,964.75
2017-06-04T01:42:03.404Z,964.75
2017-06-04T01:43:12.171Z,964.71
2017-06-04T01:44:20.940Z,964.74
2017-06-04T01:45:29.996Z,964.76
2017-06-04T01:46:39.020Z,964.72
2017-06-04T01:47:48.399Z,964.71
2017-06-04T01:48:57.151Z,964.78
2017-06-04T01:50:06.214Z,964.73
2017-06-04T01:51:15.239Z,964.75
2017-06-04T01:52:24.315Z,964.78
2017-06-04T01:53:33.085Z,964.73
2017-06-04T01:54:42.162Z,964.76
2017-06-04T01:55:51.206Z,964.77
2017-06-04T01:57:00.274Z,964.76
2017-06-04T01:58:09.294Z,964.76
2017-06-04T01:59:18.358Z,964.72
2017-06-04T02:00:27.428Z,964.73
2017-06-04T02:01:36.142Z,964.72
2017-06-04T02:02:44.913Z,964.75
2017-06-04T02:03:53.687Z,964.7
2017-06-04T02:05:02.456Z,964.71
2017-06-04T02:06:11.532Z,964.73
2017-06-04T02:07:20.885Z,964.69
2017-06-04T02:08:30.268Z,964.67
2017-06-04T02:09:39.047Z,964.73
2017-06-04T02:10:47.821Z,964.7
2017-06-04T02:11:57.207Z,964.68
2017-06-04T02:13:05.978Z,964.65
2017-06-04T02:14:14.754Z,964.66
2017-06-04T02:15:23.829Z,964.69
2017-06-04T02:16:32.590Z,964.71
2017-06-04T02:17:41.315Z,964.65
2017-06-04T02:18:50.093Z,964.64
2017-06-04T02:19:59.469Z,964.64
2017-06-04T02:21:08.215Z,964.66
2017-06-04T02:22:17.297Z,964.65
2017-06-04T02:23:26.365Z,964.65
2017-06-04T02:24:35.170Z,964.62
2017-06-04T02:25:44.243Z,964.67
2017-06-04T02:26:53.018Z,964.73
2017-06-04T02:28:02.089Z,964.72
2017-06-04T02:29:10.854Z,964.7
2017-06-04T02:30:20.222Z,964.73
2017-06-04T02:31:29.540Z,964.69
2017-06-04T02:32:38.925Z,964.74
2017-06-04T02:33:48.041Z,964.7
2017-06-04T02:34:57.095Z,964.69
2017-06-04T02:36:06.727Z,964.73
2017-06-04T02:37:15.794Z,964.74
2017-06-04T02:38:24.806Z,964.76
2017-06-04T02:39:33.809Z,964.72
2017-06-04T02:40:42.568Z,964.73
2017-06-04T02:41:51.324Z,964.71
2017-06-04T02:43:00.674Z,964.73
2017-06-04T02:44:09.375Z,964.77
2017-06-04T02:45:18.419Z,964.8
2017-06-04T02:46:27.484Z,964.8
2017-06-04T02:47:36.551Z,964.82
2017-06-04T02:48:45.606Z,964.83
2017-06-04T02:49:54.671Z,964.81
2017-06-04T02:51:03.426Z,964.83
2017-06-04T02:52:12.178Z,964.83
2017-06-04T02:53:21.531Z,964.8
2017-06-04T02:54:30.285Z,964.78
2017-06-04T02:55:39.341Z,964.78
2017-06-04T02:56:48.094Z,964.79
2017-06-04T02:57:57.141Z,964.77
2017-06-04T02:59:05.895Z,964.77
2017-06-04T03:00:14.632Z,964.82
2017-06-04T03:01:24.235Z,964.78
2017-06-04T03:02:33.598Z,964.78
2017-06-04T03:03:42.338Z,964.74
2017-06-04T03:04:51.342Z,964.77
2017-06-04T03:06:00.093Z,964.8
2017-06-04T03:07:08.857Z,964.83
2017-06-04T03:08:17.614Z,964.84
2017-06-04T03:09:26.709Z,964.86
2017-06-04T03:10:35.762Z,964.88
2017-06-04T03:11:44.833Z,964.85
2017-06-04T03:12:53.591Z,964.85
2017-06-04T03:14:02.347Z,964.89
2017-06-04T03:15:11.094Z,964.88
2017-06-04T03:16:21.058Z,964.85
2017-06-04T03:17:29.822Z,964.89
2017-06-04T03:18:38.878Z,964.87
2017-06-04T03:19:47.932Z,964.91
2017-06-04T03:20:57.189Z,964.91
2017-06-04T03:22:06.552Z,964.92
2017-06-04T03:23:15.308Z,964.94
2017-06-04T03:24:24.068Z,964.96
2017-06-04T03:25:33.431Z,964.93
2017-06-04T03:26:42.181Z,964.97
2017-06-04T03:27:50.882Z,964.95
2017-06-04T03:28:59.640Z,964.99
2017-06-04T03:30:08.697Z,964.94
2017-06-04T03:31:17.444Z,964.94
2017-06-04T03:32:26.209Z,964.95
2017-06-04T03:33:34.951Z,964.92
2017-06-04T03:34:43.947Z,964.93
2017-06-04T03:35:53.251Z,964.92
2017-06-04T03:37:02.309Z,964.87
2017-06-04T03:38:11.666Z,964.86
2017-06-04T03:39:21.021Z,964.86
2017-06-04T03:40:29.763Z,964.94
2017-06-04T03:41:39.068Z,964.93
2017-06-04T03:42:48.126Z,964.96
2017-06-04T03:43:57.517Z,964.92
2017-06-04T03:45:06.521Z,964.94
2017-06-04T03:46:15.596Z,964.92
2017-06-04T03:47:24.380Z,964.94
2017-06-04T03:48:33.727Z,964.95
2017-06-04T03:49:42.427Z,964.97
2017-06-04T03:50:51.788Z,964.92
2017-06-04T03:52:00.846Z,964.95
2017-06-04T03:53:09.911Z,964.93
2017-06-04T03:54:18.672Z,964.96
2017-06-04T03:55:27.449Z,964.94
2017-06-04T03:56:36.490Z,964.96
2017-06-04T03:57:46.103Z,964.97
2017-06-04T03:58:54.840Z,964.92
2017-06-04T04:00:03.538Z,964.94
2017-06-04T04:01:12.296Z,964.91
2017-06-04T04:02:21.354Z,964.93
2017-06-04T04:03:30.717Z,964.94
2017-06-04T04:04:39.768Z,964.97
2017-06-04T04:05:48.827Z,964.92
2017-06-04T04:06:57.577Z,964.94
2017-06-04T04:08:06.631Z,964.92
2017-06-04T04:09:15.674Z,964.91
2017-06-04T04:10:24.386Z,964.93
2017-06-04T04:11:33.710Z,964.93
2017-06-04T04:12:43.030Z,964.99
2017-06-04T04:13:52.086Z,964.96
2017-06-04T04:15:00.836Z,964.97
2017-06-04T04:16:09.593Z,964.92
2017-06-04T04:17:19.262Z,964.97
2017-06-04T04:18:28.010Z,964.92
2017-06-04T04:19:37.061Z,964.91
2017-06-04T04:20:45.803Z,964.85
2017-06-04T04:21:54.501Z,964.88
2017-06-04T04:23:03.543Z,964.91
2017-06-04T04:24:12.540Z,964.9
2017-06-04T04:25:21.239Z,964.89
2017-06-04T04:26:29.998Z,964.88
2017-06-04T04:27:38.752Z,964.87
2017-06-04T04:28:47.527Z,964.94
2017-06-04T04:29:56.285Z,964.92
2017-06-04T04:31:05.325Z,964.95
2017-06-04T04:32:14.327Z,964.99
2017-06-04T04:33:23.387Z,964.95
2017-06-04T04:34:32.136Z,964.96
2017-06-04T04:35:41.181Z,964.95
2017-06-04T04:36:49.883Z,964.96
2017-06-04T04:37:59.237Z,964.96
2017-06-04T04:39:08.026Z,964.94
2017-06-04T04:40:17.089Z,964.95
2017-06-04T04:41:26.149Z,964.94
2017-06-04T04:42:34.899Z,964.89
2017-06-04T04:43:43.662Z,964.91
2017-06-04T04:44:53.047Z,964.89
2017-06-04T04:46:02.098Z,964.84
2017-06-04T04:47:10.850Z,964.84
2017-06-04T04:48:20.211Z,964.83
2017-06-04T04:49:29.568Z,964.85
2017-06-04T04:50:38.606Z,964.84
2017-06-04T04:51:47.302Z,964.89
2017-06-04T04:52:56.103Z,964.88
2017-06-04T04:54:05.761Z,964.86
2017-06-04T04:55:14.516Z,964.87
2017-06-04T04:56:23.882Z,964.85
2017-06-04T04:57:32.641Z,964.85
2017-06-04T04:58:41.417Z,964.86
2017-06-04T04:59:50.457Z,964.93
2017-06-04T05:00:59.157Z,964.98
2017-06-04T05:02:08.192Z,965.06
2017-06-04T05:03:17.548Z,965.05
2017-06-04T05:04:27.227Z,965.06
2017-06-04T05:05:36.195Z,965.04
2017-06-04T05:06:45.262Z,965.04
2017-06-04T05:07:54.925Z,965.02
2017-06-04T05:09:04.271Z,965.01
2017-06-04T05:10:13.584Z,965
2017-06-04T05:11:22.643Z,964.99
2017-06-04T05:12:31.414Z,965
2017-06-04T05:13:40.459Z,965
2017-06-04T05:14:49.494Z,965.04
2017-06-04T05:15:59.194Z,965.05
2017-06-04T05:17:07.892Z,965.1
2017-06-04T05:18:16.649Z,965.11
2017-06-04T05:19:25.707Z,965.14
2017-06-04T05:20:35.016Z,965.13
2017-06-04T05:21:43.767Z,965.14
2017-06-04T05:22:53.129Z,965.2
2017-06-04T05:24:02.193Z,965.24
2017-06-04T05:25:11.246Z,965.29
2017-06-04T05:26:20.604Z,965.34
2017-06-04T05:27:29.659Z,965.39
2017-06-04T05:28:38.715Z,965.43
2017-06-04T05:29:47.770Z,965.43
2017-06-04T05:30:56.716Z,965.42
2017-06-04T05:32:05.480Z,965.33
2017-06-04T05:33:14.235Z,965.31
2017-06-04T05:34:23.291Z,965.34
2017-06-04T05:35:32.352Z,965.4
2017-06-04T05:36:41.398Z,965.48
2017-06-04T05:37:50.393Z,965.52
2017-06-04T05:38:59.149Z,965.52
2017-06-04T05:40:08.224Z,965.51
2017-06-04T05:41:16.969Z,965.54
2017-06-04T05:42:26.012Z,965.53
2017-06-04T05:43:35.070Z,965.52
2017-06-04T05:44:43.824Z,965.52
2017-06-04T05:45:52.666Z,965.54
2017-06-04T05:47:01.414Z,965.59
2017-06-04T05:48:10.163Z,965.58
2017-06-04T05:49:18.916Z,965.59
2017-06-04T05:50:27.679Z,965.6
2017-06-04T05:51:36.717Z,965.56
2017-06-04T05:52:45.712Z,965.56
2017-06-04T05:53:54.410Z,965.57
2017-06-04T05:55:03.769Z,965.6
2017-06-04T05:56:12.821Z,965.64
2017-06-04T05:57:21.868Z,965.65
2017-06-04T05:58:30.572Z,965.63
2017-06-04T05:59:39.327Z,965.69
2017-06-04T06:00:48.689Z,965.69
2017-06-04T06:01:57.447Z,965.67
2017-06-04T06:03:06.192Z,965.65
2017-06-04T06:04:15.182Z,965.64
2017-06-04T06:05:23.891Z,965.6
2017-06-04T06:06:32.937Z,965.61
2017-06-04T06:07:41.635Z,965.62
2017-06-04T06:08:50.395Z,965.65
2017-06-04T06:09:59.169Z,965.7
2017-06-04T06:11:08.784Z,965.72
2017-06-04T06:12:17.841Z,965.75
2017-06-04T06:13:26.596Z,965.79
2017-06-04T06:14:35.332Z,965.81
2017-06-04T06:15:44.035Z,965.81
2017-06-04T06:16:53.401Z,965.84
2017-06-04T06:18:02.367Z,965.79
2017-06-04T06:19:11.431Z,965.8
2017-06-04T06:20:20.186Z,965.8
2017-06-04T06:21:29.227Z,965.81
2017-06-04T06:22:37.932Z,965.84
2017-06-04T06:23:46.992Z,965.84
2017-06-04T06:24:56.023Z,965.86
2017-06-04T06:26:05.073Z,965.84
2017-06-04T06:27:14.684Z,965.89
2017-06-04T06:28:23.439Z,965.89
2017-06-04T06:29:32.494Z,965.91
2017-06-04T06:30:41.241Z,965.99
2017-06-04T06:31:49.997Z,965.96
2017-06-04T06:32:59.361Z,966
2017-06-04T06:34:08.431Z,966.06
2017-06-04T06:35:17.182Z,966.04
2017-06-04T06:36:26.238Z,966.03
2017-06-04T06:37:34.984Z,966.02
2017-06-04T06:38:43.746Z,966.02
2017-06-04T06:39:52.790Z,966.06
2017-06-04T06:41:01.530Z,966.07
2017-06-04T06:42:10.850Z,966.11
2017-06-04T06:43:19.564Z,966.06
2017-06-04T06:44:28.870Z,966.05
2017-06-04T06:45:38.234Z,966.04
2017-06-04T06:46:47.271Z,966.05
2017-06-04T06:47:56.270Z,966.05
2017-06-04T06:49:05.323Z,966.06
2017-06-04T06:50:14.071Z,966.1
2017-06-04T06:51:22.787Z,966.09
2017-06-04T06:52:31.791Z,966.06
2017-06-04T06:53:40.844Z,966.11
2017-06-04T06:54:49.595Z,966.07
2017-06-04T06:55:58.350Z,966.04
2017-06-04T06:57:07.109Z,966.07
2017-06-04T06:58:16.172Z,966.09
2017-06-04T06:59:24.924Z,966.12
2017-06-04T07:00:33.887Z,966.11
2017-06-04T07:01:42.654Z,966.13
2017-06-04T07:02:51.709Z,966.17
2017-06-04T07:04:00.465Z,966.15
2017-06-04T07:05:09.218Z,966.17
2017-06-04T07:06:17.978Z,966.19
2017-06-04T07:07:26.730Z,966.21
2017-06-04T07:08:36.106Z,966.23
2017-06-04T07:09:45.138Z,966.23
2017-06-04T07:10:54.198Z,966.23
2017-06-04T07:12:03.257Z,966.22
2017-06-04T07:13:12.007Z,966.25
2017-06-04T07:14:21.068Z,966.23
2017-06-04T07:15:29.819Z,966.22
2017-06-04T07:16:38.568Z,966.2
2017-06-04T07:17:47.878Z,966.28
2017-06-04T07:18:56.930Z,966.26
2017-06-04T07:20:05.691Z,966.31
2017-06-04T07:21:14.748Z,966.3
2017-06-04T07:22:23.805Z,966.29
2017-06-04T07:23:32.856Z,966.33
2017-06-04T07:24:41.577Z,966.33
2017-06-04T07:25:50.334Z,966.28
2017-06-04T07:26:59.689Z,966.37
2017-06-04T07:28:08.724Z,966.38
2017-06-04T07:29:17.473Z,966.41
2017-06-04T07:30:26.515Z,966.44
2017-06-04T07:31:35.219Z,966.47
2017-06-04T07:32:43.980Z,966.49
2017-06-04T07:33:53.083Z,966.53
2017-06-04T07:35:01.845Z,966.51
2017-06-04T07:36:11.144Z,966.51
2017-06-04T07:37:20.198Z,966.53
2017-06-04T07:38:29.489Z,966.6
2017-06-04T07:39:38.196Z,966.55
2017-06-04T07:40:47.256Z,966.55
2017-06-04T07:41:56.615Z,966.61
2017-06-04T07:43:05.681Z,966.63
2017-06-04T07:44:15.036Z,966.66
2017-06-04T07:45:23.740Z,966.64
2017-06-04T07:46:32.440Z,966.67
2017-06-04T07:47:41.192Z,966.71
2017-06-04T07:48:49.953Z,966.73
2017-06-04T07:49:58.710Z,966.7
2017-06-04T07:51:07.766Z,966.67
2017-06-04T07:52:16.521Z,966.66
2017-06-04T07:53:25.262Z,966.74
2017-06-04T07:54:33.968Z,966.68
2017-06-04T07:55:43.025Z,966.67
2017-06-04T07:56:52.391Z,966.65
2017-06-04T07:58:01.160Z,966.68
2017-06-04T07:59:10.508Z,966.61
2017-06-04T08:00:19.513Z,966.57
2017-06-04T08:01:28.570Z,966.58
2017-06-04T08:02:37.927Z,966.61
2017-06-04T08:03:46.988Z,966.64
2017-06-04T08:04:56.354Z,966.59
2017-06-04T08:06:05.113Z,966.62
2017-06-04T08:07:14.464Z,966.62
2017-06-04T08:08:23.456Z,966.62
2017-06-04T08:09:32.143Z,966.63
2017-06-04T08:10:41.147Z,966.67
2017-06-04T08:11:50.195Z,966.7
2017-06-04T08:12:59.185Z,966.73
2017-06-04T08:14:07.894Z,966.75
2017-06-04T08:15:16.950Z,966.75
2017-06-04T08:16:26.012Z,966.76
2017-06-04T08:17:35.097Z,966.73
2017-06-04T08:18:44.491Z,966.8
2017-06-04T08:19:53.245Z,966.76
2017-06-04T08:21:02.604Z,966.78
2017-06-04T08:22:11.350Z,966.77
2017-06-04T08:23:20.351Z,966.8
2017-06-04T08:24:29.101Z,966.82
2017-06-04T08:25:38.161Z,966.83
2017-06-04T08:26:46.909Z,966.76
2017-06-04T08:27:56.276Z,966.81
2017-06-04T08:29:05.342Z,966.85
2017-06-04T08:30:14.390Z,966.91
2017-06-04T08:31:23.392Z,966.88
2017-06-04T08:32:32.452Z,966.85
2017-06-04T08:33:41.199Z,966.86
2017-06-04T08:34:50.200Z,966.85
2017-06-04T08:35:58.954Z,966.88
2017-06-04T08:37:07.705Z,966.87
2017-06-04T08:38:16.716Z,966.82
2017-06-04T08:39:25.773Z,966.84
2017-06-04T08:40:34.562Z,966.83
2017-06-04T08:41:43.616Z,966.81
2017-06-04T08:42:52.367Z,966.83
2017-06-04T08:44:01.104Z,966.83
2017-06-04T08:45:10.415Z,966.86
2017-06-04T08:46:19.780Z,966.9
2017-06-04T08:47:28.845Z,966.88
2017-06-04T08:48:38.414Z,966.88
2017-06-04T08:49:47.473Z,966.91
2017-06-04T08:50:56.580Z,966.88
2017-06-04T08:52:05.336Z,966.91
2017-06-04T08:53:14.095Z,966.93
2017-06-04T08:54:23.146Z,966.95
2017-06-04T08:55:32.457Z,966.99
2017-06-04T08:56:41.516Z,966.91
2017-06-04T08:57:50.273Z,966.93
2017-06-04T08:58:59.308Z,966.97
2017-06-04T09:00:08.009Z,967
2017-06-04T09:01:16.753Z,967
2017-06-04T09:02:26.062Z,966.98
2017-06-04T09:03:35.130Z,966.97
2017-06-04T09:04:43.895Z,966.95
2017-06-04T09:05:52.983Z,967
2017-06-04T09:07:02.040Z,967.06
2017-06-04T09:08:10.793Z,967.05
2017-06-04T09:09:19.856Z,967.04
2017-06-04T09:10:28.914Z,967.08
2017-06-04T09:11:37.978Z,967.06
2017-06-04T09:12:46.708Z,967.06
2017-06-04T09:13:55.711Z,967.15
2017-06-04T09:15:04.462Z,967.12
2017-06-04T09:16:13.507Z,967.09
2017-06-04T09:17:22.508Z,967.14
2017-06-04T09:18:32.162Z,967.11
2017-06-04T09:19:41.471Z,967.08
2017-06-04T09:20:50.522Z,967.15
2017-06-04T09:21:59.587Z,967.12
2017-06-04T09:23:08.949Z,967.09
2017-06-04T09:24:17.730Z,967.15
2017-06-04T09:25:26.792Z,967.15
2017-06-04T09:26:35.551Z,967.22
2017-06-04T09:27:44.299Z,967.22
2017-06-04T09:28:53.341Z,967.21
2017-06-04T09:30:02.349Z,967.21
2017-06-04T09:31:11.100Z,967.19
2017-06-04T09:32:20.160Z,967.25
2017-06-04T09:33:29.521Z,967.23
2017-06-04T09:34:38.276Z,967.24
2017-06-04T09:35:47.333Z,967.28
2017-06-04T09:36:56.394Z,967.29
2017-06-04T09:38:05.751Z,967.33
2017-06-04T09:39:14.500Z,967.35
2017-06-04T09:40:23.503Z,967.37
2017-06-04T09:41:32.563Z,967.37
2017-06-04T09:42:41.312Z,967.29
2017-06-04T09:43:50.318Z,967.34
2017-06-04T09:44:59.833Z,967.37
2017-06-04T09:46:09.198Z,967.38
2017-06-04T09:47:17.968Z,967.42
2017-06-04T09:48:27.028Z,967.4
2017-06-04T09:49:35.787Z,967.44
2017-06-04T09:50:44.853Z,967.47
2017-06-04T09:51:53.913Z,967.47
2017-06-04T09:53:02.965Z,967.47
2017-06-04T09:54:12.017Z,967.48
2017-06-04T09:55:20.773Z,967.47
2017-06-04T09:56:29.516Z,967.48
2017-06-04T09:57:38.504Z,967.53
2017-06-04T09:58:47.510Z,967.56
2017-06-04T09:59:56.563Z,967.55
2017-06-04T10:01:05.342Z,967.55
2017-06-04T10:02:14.081Z,967.51
2017-06-04T10:03:22.781Z,967.53
2017-06-04T10:04:31.543Z,967.51
2017-06-04T10:05:40.296Z,967.53
2017-06-04T10:06:49.054Z,967.51
2017-06-04T10:07:58.100Z,967.55
2017-06-04T10:09:07.404Z,967.52
2017-06-04T10:10:16.757Z,967.49
2017-06-04T10:11:25.517Z,967.53
2017-06-04T10:12:34.272Z,967.47
2017-06-04T10:13:43.638Z,967.51
2017-06-04T10:14:52.708Z,967.55
2017-06-04T10:16:01.619Z,967.49
2017-06-04T10:17:10.676Z,967.52
2017-06-04T10:18:19.726Z,967.57
2017-06-04T10:19:28.482Z,967.63
2017-06-04T10:20:37.232Z,967.57
2017-06-04T10:21:45.993Z,967.58
2017-06-04T10:22:55.004Z,967.6
2017-06-04T10:24:03.745Z,967.54
2017-06-04T10:25:12.449Z,967.64
2017-06-04T10:26:21.206Z,967.61
2017-06-04T10:27:30.259Z,967.64
2017-06-04T10:28:39.048Z,967.58
2017-06-04T10:29:48.416Z,967.6
2017-06-04T10:30:57.468Z,967.57
2017-06-04T10:32:06.231Z,967.58
2017-06-04T10:33:15.279Z,967.61
2017-06-04T10:34:24.273Z,967.64
2017-06-04T10:35:32.962Z,967.64
2017-06-04T10:36:41.957Z,967.63
2017-06-04T10:37:50.963Z,967.68
2017-06-04T10:39:00.018Z,967.72
2017-06-04T10:40:08.722Z,967.72
2017-06-04T10:41:17.479Z,967.68
2017-06-04T10:42:26.536Z,967.71
2017-06-04T10:43:35.585Z,967.78
2017-06-04T10:44:44.286Z,967.77
2017-06-04T10:45:53.021Z,967.82
2017-06-04T10:47:02.029Z,967.81
2017-06-04T10:48:11.085Z,967.81
2017-06-04T10:49:20.158Z,967.79
2017-06-04T10:50:29.167Z,967.83
2017-06-04T10:51:38.222Z,967.85
2017-06-04T10:52:46.981Z,967.81
2017-06-04T10:53:56.029Z,967.87
2017-06-04T10:55:04.734Z,967.85
2017-06-04T10:56:13.792Z,967.86
2017-06-04T10:57:22.543Z,967.85
2017-06-04T10:58:31.284Z,967.83
2017-06-04T10:59:39.983Z,967.86
2017-06-04T11:00:49.028Z,967.88
2017-06-04T11:01:57.732Z,967.9
2017-06-04T11:03:07.100Z,967.95
2017-06-04T11:04:15.852Z,967.93
2017-06-04T11:05:24.604Z,967.95
2017-06-04T11:06:33.651Z,967.98
2017-06-04T11:07:42.667Z,967.97
2017-06-04T11:08:52.028Z,967.95
2017-06-04T11:10:00.786Z,968.01
2017-06-04T11:11:09.842Z,967.97
2017-06-04T11:12:19.206Z,967.9
2017-06-04T11:13:27.963Z,967.91
2017-06-04T11:14:36.717Z,967.93
2017-06-04T11:15:45.480Z,967.92
2017-06-04T11:16:54.536Z,967.94
2017-06-04T11:18:03.288Z,967.9
2017-06-04T11:19:12.353Z,967.93
2017-06-04T11:20:21.098Z,967.99
2017-06-04T11:21:30.166Z,967.93
2017-06-04T11:22:38.963Z,967.89
2017-06-04T11:23:48.013Z,967.85
2017-06-04T11:24:57.082Z,967.82
2017-06-04T11:26:05.839Z,967.81
2017-06-04T11:27:14.592Z,967.85
2017-06-04T11:28:23.295Z,967.89
2017-06-04T11:29:32.051Z,967.87
2017-06-04T11:30:40.801Z,967.91
2017-06-04T11:31:49.588Z,967.89
2017-06-04T11:32:58.640Z,967.91
2017-06-04T11:34:07.639Z,967.89
2017-06-04T11:35:16.392Z,967.85
2017-06-04T11:36:25.439Z,967.89
2017-06-04T11:37:34.466Z,967.88
2017-06-04T11:38:43.628Z,967.87
2017-06-04T11:39:52.632Z,967.81
2017-06-04T11:41:01.387Z,967.77
2017-06-04T11:42:10.455Z,967.81
2017-06-04T11:43:19.202Z,967.79
2017-06-04T11:44:28.899Z,967.71
2017-06-04T11:45:37.656Z,967.66
2017-06-04T11:46:46.408Z,967.73
2017-06-04T11:47:55.435Z,967.69
2017-06-04T11:49:04.225Z,967.7
2017-06-04T11:50:12.964Z,967.7
2017-06-04T11:51:21.958Z,967.76
2017-06-04T11:52:30.667Z,967.7
2017-06-04T11:53:39.766Z,967.77
2017-06-04T11:54:48.822Z,967.74
2017-06-04T11:55:58.183Z,967.66
2017-06-04T11:57:07.496Z,967.71
2017-06-04T11:58:16.243Z,967.72
2017-06-04T11:59:24.937Z,967.68
2017-06-04T12:00:33.636Z,967.65
2017-06-04T12:01:42.698Z,967.79
2017-06-04T12:02:51.767Z,967.74
2017-06-04T12:04:00.718Z,967.65
2017-06-04T12:05:10.641Z,967.67
2017-06-04T12:06:19.399Z,967.58
2017-06-04T12:07:28.159Z,967.56
2017-06-04T12:08:37.196Z,967.57
2017-06-04T12:09:45.896Z,967.56
2017-06-04T12:10:54.960Z,967.57
2017-06-04T12:12:04.011Z,967.56
2017-06-04T12:13:13.017Z,967.53
2017-06-04T12:14:22.081Z,967.57
2017-06-04T12:15:31.091Z,967.52
2017-06-04T12:16:39.857Z,967.52
2017-06-04T12:17:48.918Z,967.49
2017-06-04T12:18:57.982Z,967.47
2017-06-04T12:20:07.343Z,967.56
2017-06-04T12:21:16.097Z,967.5
2017-06-04T12:22:24.856Z,967.55
2017-06-04T12:23:33.620Z,967.55
2017-06-04T12:24:42.387Z,967.53
2017-06-04T12:25:51.142Z,967.5
2017-06-04T12:26:59.901Z,967.53
2017-06-04T12:28:08.956Z,967.51
2017-06-04T12:29:18.018Z,967.53
2017-06-04T12:30:27.079Z,967.56
2017-06-04T12:31:36.141Z,967.54
2017-06-04T12:32:44.903Z,967.51
2017-06-04T12:33:53.656Z,967.52
2017-06-04T12:35:03.023Z,967.52
2017-06-04T12:36:12.078Z,967.52
2017-06-04T12:37:20.780Z,967.51
2017-06-04T12:38:29.540Z,967.54
2017-06-04T12:39:38.299Z,967.57
2017-06-04T12:40:47.362Z,967.57
2017-06-04T12:41:56.430Z,967.57
2017-06-04T12:43:05.494Z,967.54
2017-06-04T12:44:14.551Z,967.59
2017-06-04T12:45:23.300Z,967.58
2017-06-04T12:46:32.042Z,967.64
2017-06-04T12:47:40.747Z,967.62
2017-06-04T12:48:49.501Z,967.64
2017-06-04T12:49:58.860Z,967.71
2017-06-04T12:51:07.863Z,967.71
2017-06-04T12:52:16.925Z,967.66
2017-06-04T12:53:25.977Z,967.72
2017-06-04T12:54:34.732Z,967.67
2017-06-04T12:55:43.497Z,967.65
2017-06-04T12:56:52.553Z,967.65
2017-06-04T12:58:01.858Z,967.68
2017-06-04T12:59:10.905Z,967.72
2017-06-04T13:00:19.954Z,967.69
2017-06-04T13:01:28.959Z,967.68
2017-06-04T13:02:38.030Z,967.65
2017-06-04T13:03:46.785Z,967.65
2017-06-04T13:04:55.841Z,967.67
2017-06-04T13:06:04.904Z,967.76
2017-06-04T13:07:13.993Z,967.77
2017-06-04T13:08:22.781Z,967.78
2017-06-04T13:09:31.530Z,967.79
2017-06-04T13:10:40.570Z,967.78
2017-06-04T13:11:49.275Z,967.76
2017-06-04T13:12:58.035Z,967.78
2017-06-04T13:14:07.702Z,967.76
2017-06-04T13:15:16.462Z,967.78
2017-06-04T13:16:25.200Z,967.76
2017-06-04T13:17:33.907Z,967.74
2017-06-04T13:18:42.660Z,967.79
2017-06-04T13:19:51.364Z,967.77
2017-06-04T13:21:00.114Z,967.74
2017-06-04T13:22:09.184Z,967.74
2017-06-04T13:23:18.543Z,967.75
2017-06-04T13:24:27.292Z,967.72
2017-06-04T13:25:36.050Z,967.74
2017-06-04T13:26:45.113Z,967.78
2017-06-04T13:27:54.165Z,967.77
2017-06-04T13:29:03.211Z,967.74
2017-06-04T13:30:11.967Z,967.76
2017-06-04T13:31:20.754Z,967.82
2017-06-04T13:32:29.507Z,967.82
2017-06-04T13:33:38.262Z,967.81
2017-06-04T13:34:47.627Z,967.88
2017-06-04T13:35:56.691Z,967.81
2017-06-04T13:37:05.760Z,967.83
2017-06-04T13:38:14.530Z,967.84
2017-06-04T13:39:23.287Z,967.84
2017-06-04T13:40:32.331Z,967.82
2017-06-04T13:41:41.330Z,967.86
2017-06-04T13:42:50.089Z,967.86
2017-06-04T13:43:59.154Z,967.84
2017-06-04T13:45:08.219Z,967.87
2017-06-04T13:46:17.589Z,967.88
2017-06-04T13:47:26.342Z,967.92
2017-06-04T13:48:35.690Z,967.9
2017-06-04T13:49:44.392Z,967.89
2017-06-04T13:50:53.451Z,967.89
2017-06-04T13:52:02.755Z,967.9
2017-06-04T13:53:11.760Z,967.87
2017-06-04T13:54:20.823Z,967.85
2017-06-04T13:55:29.571Z,967.87
2017-06-04T13:56:38.629Z,967.86
2017-06-04T13:57:47.935Z,967.89
2017-06-04T13:58:57.595Z,967.87
2017-06-04T14:00:06.657Z,967.9
2017-06-04T14:01:15.707Z,967.9
2017-06-04T14:02:24.715Z,967.9
2017-06-04T14:03:33.453Z,967.91
2017-06-04T14:04:42.156Z,967.88
2017-06-04T14:05:50.908Z,967.94
2017-06-04T14:06:59.618Z,967.91
2017-06-04T14:08:08.659Z,967.94
2017-06-04T14:09:17.715Z,967.93
2017-06-04T14:10:26.773Z,967.95
2017-06-04T14:11:35.830Z,967.97
2017-06-04T14:12:44.585Z,967.93
2017-06-04T14:13:53.942Z,967.97
2017-06-04T14:15:02.932Z,967.98
2017-06-04T14:16:11.687Z,967.97
2017-06-04T14:17:20.740Z,967.98
2017-06-04T14:18:29.803Z,968.04
2017-06-04T14:19:38.847Z,968.01
2017-06-04T14:20:47.560Z,968.01
2017-06-04T14:21:56.612Z,968.14
2017-06-04T14:23:05.984Z,968.16